Time;durP1;ratioP1;P1;durP2;ratioP2;P2;SDS_P1;SDS_P2;PMS_P1;PMS_P2;Temp;Humidity;BMP_temperature;BMP_pressure;BME280_temperature;BME280_humidity;BME280_pressure;Samples;Min_cycle;Max_cycle;Signal;HPM_P1;HPM_P2
2023/03/29 00:01:29;;;;;;;4.07;2.15;;;;;;;;;;5025728;28;20437;-56
2023/03/29 00:04:01;;;;;;;7.32;2.60;;;;;;;;;;5022851;28;20144;-57
2023/03/29 00:06:31;;;;;;;3.85;1.98;;;;;;;;;;5008486;28;20050;-59
2023/03/29 00:08:58;;;;;;;3.70;2.20;;;;;;;;;;5024379;28;20486;-56
2023/03/29 00:11:26;;;;;;;4.30;2.22;;;;;;;;;;5024626;28;20135;-55
2023/03/29 00:13:52;;;;;;;3.03;1.73;;;;;;;;;;5024522;28;20057;-57
2023/03/29 00:16:19;;;;;;;4.78;2.42;;;;;;;;;;5016405;28;20050;-54
2023/03/29 00:18:45;;;;;;;3.88;2.38;;;;;;;;;;5024459;28;20531;-54
2023/03/29 00:21:11;;;;;;;6.55;2.20;;;;;;;;;;5023620;28;20508;-54
2023/03/29 00:23:38;;;;;;;4.07;2.15;;;;;;;;;;5022656;28;20053;-56
2023/03/29 00:26:05;;;;;;;7.63;2.30;;;;;;;;;;5024554;28;20146;-56
2023/03/29 00:28:33;;;;;;;3.33;1.83;;;;;;;;;;5024058;28;20487;-56
2023/03/29 00:31:10;;;;;;;6.32;2.10;;;;;;;;;;5022060;28;20435;-56
2023/03/29 00:33:36;;;;;;;3.33;2.10;;;;;;;;;;5017524;28;20154;-57
2023/03/29 00:36:03;;;;;;;3.75;2.10;;;;;;;;;;5022446;28;20054;-56
2023/03/29 00:38:30;;;;;;;4.90;2.60;;;;;;;;;;5013371;28;20050;-57
2023/03/29 00:40:56;;;;;;;4.57;2.47;;;;;;;;;;5023916;28;20049;-56
2023/03/29 00:43:23;;;;;;;5.95;2.22;;;;;;;;;;5021092;28;20519;-58
2023/03/29 00:45:49;;;;;;;2.80;2.20;;;;;;;;;;5024176;28;20050;-55
2023/03/29 00:48:20;;;;;;;3.88;2.42;;;;;;;;;;5023747;28;20933;-55
2023/03/29 00:50:57;;;;;;;2.20;1.90;;;;;;;;;;5024334;28;20046;-54
2023/03/29 00:53:34;;;;;;;4.30;2.40;;;;;;;;;;5023696;28;20050;-56
2023/03/29 00:56:23;;;;;;;4.88;2.20;;;;;;;;;;5023107;28;20108;-55
2023/03/29 00:58:56;;;;;;;2.70;2.15;;;;;;;;;;5024845;28;20050;-54
2023/03/29 01:01:27;;;;;;;6.05;2.38;;;;;;;;;;5009007;28;20053;-55
2023/03/29 01:04:03;;;;;;;6.82;2.53;;;;;;;;;;5022951;28;20543;-56
2023/03/29 01:06:32;;;;;;;4.78;2.10;;;;;;;;;;5023902;28;20057;-56
2023/03/29 01:09:01;;;;;;;5.22;3.00;;;;;;;;;;5020878;28;20046;-55
2023/03/29 01:11:31;;;;;;;7.10;3.20;;;;;;;;;;5023204;28;20983;-57
2023/03/29 01:14:01;;;;;;;6.50;2.38;;;;;;;;;;5021521;28;20054;-54
2023/03/29 01:16:29;;;;;;;6.03;2.33;;;;;;;;;;5024499;28;20045;-56
2023/03/29 01:18:57;;;;;;;3.05;2.17;;;;;;;;;;5024532;28;20050;-56
2023/03/29 01:21:31;;;;;;;4.43;2.83;;;;;;;;;;5024001;28;20141;-54
2023/03/29 01:24:11;;;;;;;7.40;2.30;;;;;;;;;;5022597;28;20656;-54
2023/03/29 01:26:41;;;;;;;2.25;2.05;;;;;;;;;;5023657;28;20054;-56
2023/03/29 01:29:13;;;;;;;4.03;2.50;;;;;;;;;;5022706;28;20038;-57
2023/03/29 01:31:46;;;;;;;3.00;1.98;;;;;;;;;;5023579;28;20510;-56
2023/03/29 01:34:18;;;;;;;4.00;2.35;;;;;;;;;;5022137;28;20077;-56
2023/03/29 01:36:59;;;;;;;3.25;1.92;;;;;;;;;;5023479;28;20081;-56
2023/03/29 01:39:25;;;;;;;3.25;2.15;;;;;;;;;;5023351;28;20053;-57
2023/03/29 01:42:00;;;;;;;3.85;2.20;;;;;;;;;;5022858;28;20046;-57
2023/03/29 01:44:30;;;;;;;3.65;2.78;;;;;;;;;;5021817;28;20064;-57
2023/03/29 01:47:09;;;;;;;5.35;2.42;;;;;;;;;;5022904;28;20078;-56
2023/03/29 01:49:47;;;;;;;5.38;2.80;;;;;;;;;;5005358;28;20543;-56
2023/03/29 01:52:17;;;;;;;4.45;2.85;;;;;;;;;;5023448;28;20050;-56
2023/03/29 01:54:54;;;;;;;11.30;2.90;;;;;;;;;;5020784;28;20052;-57
2023/03/29 01:57:23;;;;;;;4.50;3.22;;;;;;;;;;5018201;28;20050;-58
2023/03/29 01:59:52;;;;;;;3.80;2.40;;;;;;;;;;5022298;28;20165;-56
2023/03/29 02:02:19;;;;;;;3.05;2.55;;;;;;;;;;5025654;28;20046;-57
2023/03/29 02:04:49;;;;;;;4.63;2.30;;;;;;;;;;5026381;28;20061;-54
2023/03/29 02:07:16;;;;;;;5.75;2.47;;;;;;;;;;5004850;28;20053;-56
2023/03/29 02:09:43;;;;;;;7.50;2.70;;;;;;;;;;5012926;28;20046;-56
2023/03/29 02:12:11;;;;;;;7.18;2.58;;;;;;;;;;5026556;28;20053;-55
2023/03/29 02:14:37;;;;;;;2.80;2.20;;;;;;;;;;5026486;28;20058;-58
2023/03/29 02:17:21;;;;;;;6.45;2.53;;;;;;;;;;5025212;28;22243;-54
2023/03/29 02:19:50;;;;;;;4.68;2.53;;;;;;;;;;5013862;28;20081;-56
2023/03/29 02:22:21;;;;;;;3.53;2.53;;;;;;;;;;5026748;28;20050;-57
2023/03/29 02:24:49;;;;;;;5.43;2.70;;;;;;;;;;5026108;28;20093;-56
2023/03/29 02:27:16;;;;;;;4.38;2.55;;;;;;;;;;5026153;28;20058;-56
2023/03/29 02:29:45;;;;;;;7.97;3.20;;;;;;;;;;5025869;28;21266;-55
2023/03/29 02:32:16;;;;;;;2.30;2.08;;;;;;;;;;5026293;28;20053;-56
2023/03/29 02:34:42;;;;;;;4.10;2.63;;;;;;;;;;5025561;28;20060;-57
2023/03/29 02:37:11;;;;;;;6.70;3.00;;;;;;;;;;5024739;28;20870;-55
2023/03/29 02:39:38;;;;;;;8.10;3.35;;;;;;;;;;5025184;28;20053;-56
2023/03/29 02:42:05;;;;;;;5.60;3.05;;;;;;;;;;5025486;28;20520;-55
2023/03/29 02:44:33;;;;;;;4.97;2.78;;;;;;;;;;5026059;28;20064;-53
2023/03/29 02:47:04;;;;;;;4.30;3.08;;;;;;;;;;5026154;28;20054;-57
2023/03/29 02:49:31;;;;;;;7.05;2.90;;;;;;;;;;5011075;28;20054;-56
2023/03/29 02:52:00;;;;;;;6.65;2.72;;;;;;;;;;5026473;28;20046;-56
2023/03/29 02:54:28;;;;;;;5.97;3.00;;;;;;;;;;5026414;28;20495;-56
2023/03/29 02:56:56;;;;;;;4.88;3.42;;;;;;;;;;5025695;28;20275;-54
2023/03/29 02:59:23;;;;;;;3.97;2.90;;;;;;;;;;5024728;28;20062;-54
2023/03/29 03:01:51;;;;;;;5.50;3.00;;;;;;;;;;5026145;28;20588;-57
2023/03/29 03:04:19;;;;;;;4.65;2.80;;;;;;;;;;5025585;28;20510;-56
2023/03/29 03:06:46;;;;;;;6.15;3.03;;;;;;;;;;5008642;28;20057;-56
2023/03/29 03:09:13;;;;;;;4.25;3.22;;;;;;;;;;5023317;28;20058;-56
2023/03/29 03:11:39;;;;;;;5.07;3.03;;;;;;;;;;5024750;28;20439;-55
2023/03/29 03:14:06;;;;;;;6.13;2.83;;;;;;;;;;5025817;28;20053;-56
2023/03/29 03:16:32;;;;;;;6.07;3.17;;;;;;;;;;5025351;28;20077;-55
2023/03/29 03:18:59;;;;;;;5.65;2.78;;;;;;;;;;5026308;28;20054;-54
2023/03/29 03:21:29;;;;;;;5.20;2.35;;;;;;;;;;5025101;28;20070;-52
2023/03/29 03:23:55;;;;;;;5.15;3.08;;;;;;;;;;5023732;28;20564;-56
2023/03/29 03:26:23;;;;;;;6.18;3.25;;;;;;;;;;5024238;28;20521;-56
2023/03/29 03:28:50;;;;;;;4.80;2.80;;;;;;;;;;5008031;28;20046;-56
2023/03/29 03:31:16;;;;;;;5.63;2.90;;;;;;;;;;5024220;28;20062;-54
2023/03/29 03:33:43;;;;;;;6.97;3.03;;;;;;;;;;5025962;28;20061;-57
2023/03/29 03:36:10;;;;;;;8.40;3.65;;;;;;;;;;5022681;28;20056;-55
2023/03/29 03:38:37;;;;;;;6.35;3.47;;;;;;;;;;5026097;28;20100;-54
2023/03/29 03:41:05;;;;;;;7.15;3.35;;;;;;;;;;5025353;28;20109;-56
2023/03/29 03:43:32;;;;;;;5.38;3.10;;;;;;;;;;5024959;28;20065;-56
2023/03/29 03:45:58;;;;;;;4.93;3.33;;;;;;;;;;5022966;28;20058;-54
2023/03/29 03:48:25;;;;;;;8.95;3.55;;;;;;;;;;5026195;28;20512;-56
2023/03/29 03:50:53;;;;;;;8.18;3.13;;;;;;;;;;5023287;28;20049;-54
2023/03/29 03:53:20;;;;;;;6.88;3.30;;;;;;;;;;5019630;28;20080;-57
2023/03/29 03:55:47;;;;;;;7.05;3.67;;;;;;;;;;5023413;28;20531;-58
2023/03/29 03:58:14;;;;;;;5.28;3.00;;;;;;;;;;5025970;28;20566;-54
2023/03/29 04:00:41;;;;;;;7.28;2.80;;;;;;;;;;5024896;28;20080;-56
2023/03/29 04:03:07;;;;;;;10.00;3.15;;;;;;;;;;5026055;28;20121;-55
2023/03/29 04:05:38;;;;;;;5.70;3.40;;;;;;;;;;5006143;28;20562;-57
2023/03/29 04:08:05;;;;;;;7.60;3.70;;;;;;;;;;5022617;28;20626;-57
2023/03/29 04:10:33;;;;;;;7.90;3.38;;;;;;;;;;5023256;28;20508;-56
2023/03/29 04:13:01;;;;;;;4.53;2.60;;;;;;;;;;5005170;28;20058;-56
2023/03/29 04:15:27;;;;;;;6.00;3.78;;;;;;;;;;5023751;28;20056;-55
2023/03/29 04:17:58;;;;;;;5.22;3.03;;;;;;;;;;5023042;28;20061;-56
2023/03/29 04:20:25;;;;;;;6.30;3.17;;;;;;;;;;5023457;28;20056;-51
2023/03/29 04:22:51;;;;;;;8.30;3.60;;;;;;;;;;5024340;28;20742;-55
2023/03/29 04:25:20;;;;;;;4.75;2.83;;;;;;;;;;5023439;28;20054;-57
2023/03/29 04:27:47;;;;;;;10.23;3.50;;;;;;;;;;5023807;28;20046;-56
2023/03/29 04:30:13;;;;;;;5.93;3.35;;;;;;;;;;5023818;28;20876;-55
2023/03/29 04:32:39;;;;;;;4.85;3.28;;;;;;;;;;5023730;28;20062;-56
2023/03/29 04:35:06;;;;;;;7.97;3.03;;;;;;;;;;5025562;28;20054;-58
2023/03/29 04:37:33;;;;;;;4.05;2.97;;;;;;;;;;5024078;28;20050;-57
2023/03/29 04:39:59;;;;;;;3.45;3.00;;;;;;;;;;5023202;28;20065;-57
2023/03/29 04:42:26;;;;;;;5.13;3.47;;;;;;;;;;5024827;28;20555;-55
2023/03/29 04:44:53;;;;;;;5.40;3.05;;;;;;;;;;5021191;28;20061;-56
2023/03/29 04:47:22;;;;;;;4.10;3.10;;;;;;;;;;5022095;28;20795;-57
2023/03/29 04:49:49;;;;;;;5.07;2.97;;;;;;;;;;5018212;28;20054;-57
2023/03/29 04:52:15;;;;;;;4.45;3.38;;;;;;;;;;5021313;28;20077;-54
2023/03/29 04:54:41;;;;;;;6.72;3.50;;;;;;;;;;5022987;28;20050;-56
2023/03/29 04:57:08;;;;;;;4.47;3.40;;;;;;;;;;5022543;28;20053;-53
2023/03/29 04:59:34;;;;;;;4.78;3.30;;;;;;;;;;5019942;28;20054;-54
2023/03/29 05:02:02;;;;;;;7.25;3.20;;;;;;;;;;5022754;28;20050;-57
2023/03/29 05:04:29;;;;;;;7.90;2.80;;;;;;;;;;5023013;28;20054;-54
2023/03/29 05:06:56;;;;;;;6.03;3.45;;;;;;;;;;5023156;28;20062;-54
2023/03/29 05:09:23;;;;;;;5.85;3.05;;;;;;;;;;5023452;28;20084;-54
2023/03/29 05:11:49;;;;;;;5.20;3.17;;;;;;;;;;5024156;28;20049;-57
2023/03/29 05:14:15;;;;;;;6.50;3.42;;;;;;;;;;5024054;28;20057;-54
2023/03/29 05:16:42;;;;;;;7.85;3.67;;;;;;;;;;5020655;28;20144;-56
2023/03/29 05:19:10;;;;;;;6.30;2.80;;;;;;;;;;5022981;28;20050;-57
2023/03/29 05:21:37;;;;;;;7.10;3.47;;;;;;;;;;5022122;28;20908;-54
2023/03/29 05:24:04;;;;;;;7.10;3.25;;;;;;;;;;5024238;28;20056;-57
2023/03/29 05:26:31;;;;;;;7.72;3.45;;;;;;;;;;5023102;28;20185;-56
2023/03/29 05:28:57;;;;;;;5.93;3.42;;;;;;;;;;5024669;28;20042;-57
2023/03/29 05:31:23;;;;;;;4.25;3.20;;;;;;;;;;5022902;28;20060;-56
2023/03/29 05:33:50;;;;;;;3.85;2.85;;;;;;;;;;5024649;28;20108;-55
2023/03/29 05:36:18;;;;;;;4.60;2.92;;;;;;;;;;5025193;28;20054;-54
2023/03/29 05:38:45;;;;;;;5.50;3.65;;;;;;;;;;5027579;28;20802;-56
2023/03/29 05:41:13;;;;;;;4.68;2.90;;;;;;;;;;5026657;28;20050;-57
2023/03/29 05:43:39;;;;;;;14.73;3.72;;;;;;;;;;5025059;28;20050;-55
2023/03/29 05:46:06;;;;;;;4.63;3.00;;;;;;;;;;5024985;28;20082;-57
2023/03/29 05:48:33;;;;;;;5.53;3.60;;;;;;;;;;5016031;28;20061;-54
2023/03/29 05:50:59;;;;;;;4.28;3.05;;;;;;;;;;5020442;28;20212;-56
2023/03/29 05:53:27;;;;;;;5.60;4.00;;;;;;;;;;5024509;28;20050;-56
2023/03/29 05:55:53;;;;;;;4.07;3.05;;;;;;;;;;5022256;28;20515;-55
2023/03/29 05:58:20;;;;;;;5.85;3.35;;;;;;;;;;5025112;28;20092;-57
2023/03/29 06:00:50;;;;;;;4.05;2.70;;;;;;;;;;5020124;28;20542;-57
2023/03/29 06:03:18;;;;;;;5.10;3.10;;;;;;;;;;5022253;28;20517;-53
2023/03/29 06:05:48;;;;;;;6.97;3.55;;;;;;;;;;5025327;28;20054;-55
2023/03/29 06:08:16;;;;;;;6.47;3.50;;;;;;;;;;5023421;28;20108;-53
2023/03/29 06:10:43;;;;;;;7.03;3.50;;;;;;;;;;5021496;28;20053;-55
2023/03/29 06:13:09;;;;;;;5.18;3.65;;;;;;;;;;5024159;28;20102;-57
2023/03/29 06:15:36;;;;;;;7.65;3.20;;;;;;;;;;5024435;28;20474;-56
2023/03/29 06:18:02;;;;;;;6.53;3.80;;;;;;;;;;5024348;28;20058;-55
2023/03/29 06:20:29;;;;;;;7.70;3.58;;;;;;;;;;5000664;28;21750;-57
2023/03/29 06:22:55;;;;;;;6.22;3.75;;;;;;;;;;5021669;28;20448;-55
2023/03/29 06:25:22;;;;;;;4.15;3.25;;;;;;;;;;5020311;28;20374;-56
2023/03/29 06:27:48;;;;;;;7.43;3.70;;;;;;;;;;5010591;28;20502;-62
2023/03/29 06:30:15;;;;;;;8.52;4.18;;;;;;;;;;5024015;28;20052;-56
2023/03/29 06:32:41;;;;;;;4.57;3.40;;;;;;;;;;5023478;28;20100;-54
2023/03/29 06:35:08;;;;;;;6.45;4.03;;;;;;;;;;5023524;28;20585;-56
2023/03/29 06:37:35;;;;;;;7.35;3.85;;;;;;;;;;5023125;28;20060;-53
2023/03/29 06:40:06;;;;;;;8.32;3.88;;;;;;;;;;5019848;28;20090;-56
2023/03/29 06:42:32;;;;;;;6.68;4.05;;;;;;;;;;5021962;28;20058;-53
2023/03/29 06:44:58;;;;;;;7.30;4.30;;;;;;;;;;5021213;28;20054;-56
2023/03/29 06:47:29;;;;;;;6.38;4.18;;;;;;;;;;5019813;28;20065;-54
2023/03/29 06:49:56;;;;;;;7.00;4.10;;;;;;;;;;4994399;28;20962;-55
2023/03/29 06:52:22;;;;;;;7.80;5.28;;;;;;;;;;5019386;28;20137;-54
2023/03/29 06:54:49;;;;;;;7.10;4.45;;;;;;;;;;5019176;28;20167;-57
2023/03/29 06:57:16;;;;;;;9.98;4.00;;;;;;;;;;5022430;28;20046;-56
2023/03/29 06:59:43;;;;;;;8.80;4.82;;;;;;;;;;5019204;28;20603;-56
2023/03/29 07:02:11;;;;;;;7.85;4.03;;;;;;;;;;5021628;28;20593;-53
2023/03/29 07:04:38;;;;;;;6.18;4.30;;;;;;;;;;5016960;28;20057;-53
2023/03/29 07:07:06;;;;;;;6.15;4.05;;;;;;;;;;5015578;28;20077;-56
2023/03/29 07:09:34;;;;;;;10.30;4.20;;;;;;;;;;5012396;28;20888;-56
2023/03/29 07:12:01;;;;;;;10.02;5.05;;;;;;;;;;5004530;28;20506;-55
2023/03/29 07:14:29;;;;;;;8.18;4.13;;;;;;;;;;5017436;28;20073;-52
2023/03/29 07:16:57;;;;;;;10.80;4.88;;;;;;;;;;5020666;28;20057;-54
2023/03/29 07:19:26;;;;;;;7.45;4.95;;;;;;;;;;5021532;28;20491;-55
2023/03/29 07:21:53;;;;;;;5.85;4.32;;;;;;;;;;5001756;28;20559;-56
2023/03/29 07:24:20;;;;;;;4.80;4.30;;;;;;;;;;5022358;28;20050;-56
2023/03/29 07:26:47;;;;;;;8.15;4.53;;;;;;;;;;5020510;28;20046;-55
2023/03/29 07:29:29;;;;;;;7.10;4.80;;;;;;;;;;5014974;28;20923;-56
2023/03/29 07:31:56;;;;;;;14.65;6.22;;;;;;;;;;5019482;28;20144;-56
2023/03/29 07:34:23;;;;;;;9.02;5.80;;;;;;;;;;5013433;28;20058;-57
2023/03/29 07:36:50;;;;;;;9.55;5.20;;;;;;;;;;5022229;28;20084;-54
2023/03/29 07:39:16;;;;;;;9.73;5.10;;;;;;;;;;5022154;28;20088;-54
2023/03/29 07:41:43;;;;;;;9.27;5.38;;;;;;;;;;5022739;28;20054;-56
2023/03/29 07:44:09;;;;;;;8.35;4.70;;;;;;;;;;5019956;28;20574;-57
2023/03/29 07:46:36;;;;;;;10.10;4.95;;;;;;;;;;5019435;28;20047;-55
2023/03/29 07:49:03;;;;;;;11.52;5.35;;;;;;;;;;5020176;28;20081;-56
2023/03/29 07:51:30;;;;;;;7.53;4.75;;;;;;;;;;5027603;28;20076;-54
2023/03/29 07:53:56;;;;;;;11.90;5.18;;;;;;;;;;5019873;28;20046;-54
2023/03/29 07:56:23;;;;;;;13.40;5.47;;;;;;;;;;5010200;28;20575;-53
2023/03/29 07:58:50;;;;;;;6.80;5.03;;;;;;;;;;5024215;28;20061;-55
2023/03/29 08:01:18;;;;;;;8.48;5.63;;;;;;;;;;5022814;28;20100;-57
2023/03/29 08:03:45;;;;;;;9.52;5.55;;;;;;;;;;5029653;28;20443;-54
2023/03/29 08:06:11;;;;;;;11.48;5.57;;;;;;;;;;5021912;28;20615;-57
2023/03/29 08:08:38;;;;;;;9.60;6.35;;;;;;;;;;5012912;28;20056;-56
2023/03/29 08:11:07;;;;;;;9.73;5.50;;;;;;;;;;5022498;28;20571;-54
2023/03/29 08:13:34;;;;;;;9.82;5.90;;;;;;;;;;5021920;28;20060;-58
2023/03/29 08:16:00;;;;;;;10.65;6.20;;;;;;;;;;5021587;28;20060;-53
2023/03/29 08:18:27;;;;;;;10.07;5.65;;;;;;;;;;5019325;28;20558;-53
2023/03/29 08:20:53;;;;;;;10.63;7.13;;;;;;;;;;5015275;28;20054;-55
2023/03/29 08:23:20;;;;;;;10.10;6.18;;;;;;;;;;5031529;28;20056;-56
2023/03/29 08:25:46;;;;;;;10.50;6.15;;;;;;;;;;5033081;28;20060;-55
2023/03/29 08:28:12;;;;;;;9.55;5.97;;;;;;;;;;5021061;28;20427;-53
2023/03/29 08:30:39;;;;;;;12.20;6.47;;;;;;;;;;5008761;28;20046;-56
2023/03/29 08:33:05;;;;;;;12.40;7.20;;;;;;;;;;5018527;28;20128;-57
2023/03/29 08:35:31;;;;;;;10.93;6.90;;;;;;;;;;5021502;28;20113;-55
2023/03/29 08:37:58;;;;;;;7.85;6.00;;;;;;;;;;5020730;28;20415;-54
2023/03/29 08:40:26;;;;;;;14.93;7.82;;;;;;;;;;5022353;28;20109;-51
2023/03/29 08:42:53;;;;;;;13.93;7.18;;;;;;;;;;5020209;28;20584;-56
2023/03/29 08:45:20;;;;;;;12.50;6.95;;;;;;;;;;5020305;28;20085;-56
2023/03/29 08:48:12;;;;;;;11.57;6.57;;;;;;;;;;5021440;28;20057;-56
2023/03/29 08:50:42;;;;;;;9.48;6.25;;;;;;;;;;4990443;28;20526;-55
2023/03/29 08:53:17;;;;;;;12.02;6.72;;;;;;;;;;5024549;28;20878;-57
2023/03/29 08:55:49;;;;;;;14.35;6.55;;;;;;;;;;5020486;28;20495;-54
2023/03/29 08:58:19;;;;;;;15.98;6.97;;;;;;;;;;5003700;28;20475;-56
2023/03/29 09:00:50;;;;;;;10.95;6.60;;;;;;;;;;5019418;28;20530;-56
2023/03/29 09:03:21;;;;;;;13.48;7.20;;;;;;;;;;5021077;28;20177;-54
2023/03/29 09:05:50;;;;;;;15.82;7.78;;;;;;;;;;5020324;28;20058;-55
2023/03/29 09:08:18;;;;;;;13.52;7.38;;;;;;;;;;5022503;28;20092;-57
2023/03/29 09:10:46;;;;;;;15.73;7.50;;;;;;;;;;5025869;28;20093;-55
2023/03/29 09:13:16;;;;;;;12.02;6.80;;;;;;;;;;5020424;28;20858;-56
2023/03/29 09:15:57;;;;;;;14.25;8.07;;;;;;;;;;5039200;28;20542;-55
2023/03/29 09:18:31;;;;;;;13.35;8.65;;;;;;;;;;5017074;28;20492;-56
2023/03/29 09:21:08;;;;;;;12.55;7.57;;;;;;;;;;5023721;28;20061;-53
2023/03/29 09:23:53;;;;;;;12.93;8.00;;;;;;;;;;5024103;28;20092;-56
2023/03/29 09:26:21;;;;;;;;;;;;;;;;;;5019482;28;20157;-55
2023/03/29 09:29:14;;;;;;;16.70;7.57;;;;;;;;;;5023347;28;47147;-55
2023/03/29 09:31:42;;;;;;;14.27;8.15;;;;;;;;;;4991734;28;20137;-55
2023/03/29 09:34:19;;;;;;;16.23;8.20;;;;;;;;;;5006335;28;20057;-56
2023/03/29 09:36:58;;;;;;;14.10;8.60;;;;;;;;;;5021567;28;20508;-58
2023/03/29 09:39:26;;;;;;;10.88;7.05;;;;;;;;;;5021495;28;20512;-60
2023/03/29 09:42:00;;;;;;;12.68;8.00;;;;;;;;;;5019687;28;20137;-55
2023/03/29 09:44:36;;;;;;;16.55;8.20;;;;;;;;;;5021428;28;20057;-56
2023/03/29 09:47:21;;;;;;;15.48;8.05;;;;;;;;;;5032780;28;20052;-56
2023/03/29 09:49:49;;;;;;;16.40;7.85;;;;;;;;;;5020598;28;20086;-56
2023/03/29 09:52:16;;;;;;;11.90;8.10;;;;;;;;;;5032421;28;20050;-55
2023/03/29 09:54:42;;;;;;;11.68;8.25;;;;;;;;;;5019762;28;20045;-56
2023/03/29 09:57:11;;;;;;;13.30;8.93;;;;;;;;;;5019303;28;20050;-57
2023/03/29 09:59:38;;;;;;;20.23;7.78;;;;;;;;;;5018813;28;20080;-55
2023/03/29 10:02:09;;;;;;;14.20;7.80;;;;;;;;;;5021556;28;20505;-57
2023/03/29 10:04:37;;;;;;;11.57;8.30;;;;;;;;;;5021107;28;20056;-56
2023/03/29 10:07:05;;;;;;;14.55;9.20;;;;;;;;;;5028237;28;20508;-57
2023/03/29 10:09:32;;;;;;;14.43;9.63;;;;;;;;;;5023005;28;20085;-57
2023/03/29 10:12:03;;;;;;;12.98;8.98;;;;;;;;;;5019085;28;20057;-54
2023/03/29 10:14:40;;;;;;;12.30;9.45;;;;;;;;;;5023642;28;20563;-54
2023/03/29 10:17:18;;;;;;;14.57;9.48;;;;;;;;;;5023517;28;20057;-49
2023/03/29 10:19:52;;;;;;;16.50;9.75;;;;;;;;;;5018986;28;20277;-52
2023/03/29 10:22:21;;;;;;;12.43;9.23;;;;;;;;;;5017609;28;20054;-53
2023/03/29 10:24:50;;;;;;;13.60;9.65;;;;;;;;;;5022846;28;20058;-53
2023/03/29 10:27:19;;;;;;;14.98;9.30;;;;;;;;;;5020967;28;20515;-55
2023/03/29 10:29:45;;;;;;;15.20;10.30;;;;;;;;;;5022469;28;20066;-53
2023/03/29 10:32:13;;;;;;;17.25;9.90;;;;;;;;;;5021891;28;20546;-52
2023/03/29 10:34:40;;;;;;;15.57;9.50;;;;;;;;;;5020345;28;20058;-55
2023/03/29 10:37:07;;;;;;;12.98;10.13;;;;;;;;;;5023114;28;20053;-56
2023/03/29 10:39:34;;;;;;;12.93;10.20;;;;;;;;;;5022404;28;20092;-55
2023/03/29 10:42:02;;;;;;;17.33;9.77;;;;;;;;;;5004261;28;20968;-55
2023/03/29 10:44:33;;;;;;;15.75;9.65;;;;;;;;;;5022651;28;20057;-54
2023/03/29 10:47:06;;;;;;;13.73;10.18;;;;;;;;;;5022947;28;20595;-59
2023/03/29 10:49:38;;;;;;;15.38;10.57;;;;;;;;;;5021026;28;20052;-55
2023/03/29 10:52:06;;;;;;;16.27;9.82;;;;;;;;;;5023109;28;20558;-55
2023/03/29 10:54:32;;;;;;;13.63;9.80;;;;;;;;;;5019583;28;20379;-56
2023/03/29 10:57:02;;;;;;;12.73;9.55;;;;;;;;;;5023999;28;20523;-54
2023/03/29 10:59:34;;;;;;;17.50;9.48;;;;;;;;;;5017100;28;20050;-55
2023/03/29 11:02:27;;;;;;;13.13;9.40;;;;;;;;;;5023342;28;20512;-53
2023/03/29 11:04:58;;;;;;;15.95;9.70;;;;;;;;;;5022413;28;20085;-53
2023/03/29 11:07:33;;;;;;;14.95;10.30;;;;;;;;;;5022482;28;20534;-55
2023/03/29 11:10:15;;;;;;;13.90;9.75;;;;;;;;;;5025079;28;21022;-53
2023/03/29 11:13:07;;;;;;;16.00;9.73;;;;;;;;;;5013988;28;21166;-54
2023/03/29 11:15:52;;;;;;;11.80;8.63;;;;;;;;;;5019845;28;20129;-55
2023/03/29 11:18:37;;;;;;;10.57;8.80;;;;;;;;;;5020643;28;20524;-55
2023/03/29 11:21:35;;;;;;;14.23;9.68;;;;;;;;;;5021883;28;20066;-57
2023/03/29 11:24:20;;;;;;;16.33;10.60;;;;;;;;;;4938650;28;20052;-57
2023/03/29 11:27:06;;;;;;;14.80;10.10;;;;;;;;;;4941816;28;20048;-54
2023/03/29 11:29:42;;;;;;;14.43;11.60;;;;;;;;;;4946669;28;20063;-51
2023/03/29 11:32:25;;;;;;;15.20;11.20;;;;;;;;;;4941321;28;20131;-53
2023/03/29 11:35:01;;;;;;;16.25;13.07;;;;;;;;;;4939694;28;20051;-55
2023/03/29 11:37:27;;;;;;;;;;;;;;;;;;4940299;28;20153;-54
2023/03/29 11:40:14;;;;;;;18.75;12.48;;;;;;;;;;4938798;28;44375;-51
2023/03/29 11:42:44;;;;;;;17.20;13.52;;;;;;;;;;4919060;28;20063;-53
2023/03/29 11:45:13;;;;;;;14.60;12.20;;;;;;;;;;4937911;28;20361;-52
2023/03/29 11:47:40;;;;;;;17.20;12.60;;;;;;;;;;4939181;28;20514;-51
2023/03/29 11:50:21;;;;;;;20.33;13.02;;;;;;;;;;4940854;28;20079;-55
2023/03/29 11:52:52;;;;;;;25.42;14.80;;;;;;;;;;4938900;28;20052;-54
2023/03/29 11:55:22;;;;;;;16.83;13.77;;;;;;;;;;4939064;28;20288;-53
2023/03/29 11:58:01;;;;;;;17.15;13.93;;;;;;;;;;4940774;28;20056;-56
2023/03/29 12:00:29;;;;;;;18.15;13.68;;;;;;;;;;5007802;28;20049;-54
2023/03/29 12:03:08;;;;;;;19.58;14.57;;;;;;;;;;5014599;28;20050;-52
2023/03/29 12:05:49;;;;;;;18.27;14.10;;;;;;;;;;5019139;28;20464;-56
2023/03/29 12:08:23;;;;;;;24.20;14.50;;;;;;;;;;5020222;28;20569;-55
2023/03/29 12:11:12;;;;;;;19.65;14.40;;;;;;;;;;5022865;28;20088;-58
2023/03/29 12:13:44;;;;;;;18.88;14.52;;;;;;;;;;5015958;28;20599;-57
2023/03/29 12:16:16;;;;;;;18.92;13.60;;;;;;;;;;5021361;28;20137;-53
2023/03/29 12:18:45;;;;;;;21.15;14.20;;;;;;;;;;5018612;28;20397;-55
2023/03/29 12:21:13;;;;;;;20.23;15.02;;;;;;;;;;5010070;28;20050;-53
2023/03/29 12:23:40;;;;;;;25.40;15.75;;;;;;;;;;5014977;28;20081;-56
2023/03/29 12:26:15;;;;;;;19.88;15.38;;;;;;;;;;5029511;28;20053;-52
2023/03/29 12:28:45;;;;;;;17.90;14.20;;;;;;;;;;5009320;28;20484;-54
2023/03/29 12:31:34;;;;;;;22.25;15.55;;;;;;;;;;5018661;28;20050;-54
2023/03/29 12:34:16;;;;;;;20.58;15.73;;;;;;;;;;5019532;28;20057;-54
2023/03/29 12:36:42;;;;;;;22.67;14.98;;;;;;;;;;5020258;28;20076;-54
2023/03/29 12:39:14;;;;;;;24.15;16.52;;;;;;;;;;5021753;28;20045;-56
2023/03/29 12:41:43;;;;;;;20.02;15.25;;;;;;;;;;5019796;28;20062;-54
2023/03/29 12:44:12;;;;;;;21.25;14.93;;;;;;;;;;5014082;28;20153;-55
2023/03/29 12:46:38;;;;;;;17.83;14.48;;;;;;;;;;5016698;28;20570;-56
2023/03/29 12:49:25;;;;;;;18.70;14.52;;;;;;;;;;5017410;28;20070;-60
2023/03/29 12:51:53;;;;;;;18.67;14.43;;;;;;;;;;5020237;28;20054;-56
2023/03/29 12:54:25;;;;;;;16.85;13.82;;;;;;;;;;5018457;28;20554;-53
2023/03/29 12:56:53;;;;;;;19.38;15.20;;;;;;;;;;5019612;28;20050;-54
2023/03/29 12:59:24;;;;;;;19.80;14.43;;;;;;;;;;5033048;28;20594;-51
2023/03/29 13:01:57;;;;;;;20.08;14.18;;;;;;;;;;5019001;28;20061;-51
2023/03/29 13:04:34;;;;;;;20.58;15.05;;;;;;;;;;5006605;28;20121;-55
2023/03/29 13:07:04;;;;;;;23.08;16.08;;;;;;;;;;5018813;28;20057;-54
2023/03/29 13:09:35;;;;;;;17.95;14.73;;;;;;;;;;5001968;28;20049;-53
2023/03/29 13:12:07;;;;;;;15.68;14.02;;;;;;;;;;5020911;28;20061;-53
2023/03/29 13:14:36;;;;;;;19.33;13.82;;;;;;;;;;5004818;28;20062;-53
2023/03/29 13:17:04;;;;;;;16.20;13.65;;;;;;;;;;5019018;28;20060;-53
2023/03/29 13:19:46;;;;;;;20.02;15.43;;;;;;;;;;5017936;28;20119;-51
2023/03/29 13:22:28;;;;;;;20.10;14.13;;;;;;;;;;5007595;28;20124;-55
2023/03/29 13:25:04;;;;;;;18.25;14.00;;;;;;;;;;5014376;28;20050;-54
2023/03/29 13:27:44;;;;;;;20.10;14.82;;;;;;;;;;5022105;28;20081;-54
2023/03/29 13:30:14;;;;;;;21.40;14.77;;;;;;;;;;5020381;28;20058;-53
2023/03/29 13:32:45;;;;;;;19.55;14.15;;;;;;;;;;5018276;28;20050;-54
2023/03/29 13:35:26;;;;;;;19.58;13.52;;;;;;;;;;5003613;28;20126;-54
2023/03/29 13:37:53;;;;;;;17.60;14.27;;;;;;;;;;5015938;28;20137;-56
2023/03/29 13:40:30;;;;;;;21.95;14.82;;;;;;;;;;5020039;28;20058;-54
2023/03/29 13:43:07;;;;;;;21.35;14.50;;;;;;;;;;5019342;28;20058;-53
2023/03/29 13:45:34;;;;;;;19.42;14.05;;;;;;;;;;5015583;28;20537;-53
2023/03/29 13:48:02;;;;;;;18.35;14.63;;;;;;;;;;5016870;28;20150;-54
2023/03/29 13:50:34;;;;;;;19.60;15.88;;;;;;;;;;5015692;28;20061;-55
2023/03/29 13:53:05;;;;;;;20.73;14.60;;;;;;;;;;5007146;28;20543;-54
2023/03/29 13:55:35;;;;;;;19.13;15.63;;;;;;;;;;5019311;28;20217;-56
2023/03/29 13:58:06;;;;;;;18.63;15.05;;;;;;;;;;5022258;28;20065;-55
2023/03/29 14:00:35;;;;;;;18.45;15.07;;;;;;;;;;5022795;28;20515;-54
2023/03/29 14:03:11;;;;;;;20.55;15.20;;;;;;;;;;5018640;28;20061;-55
2023/03/29 14:05:39;;;;;;;19.50;15.13;;;;;;;;;;5020202;28;20059;-55
2023/03/29 14:08:13;;;;;;;22.17;16.27;;;;;;;;;;5020041;28;20081;-55
2023/03/29 14:10:41;;;;;;;19.97;14.73;;;;;;;;;;5019485;28;20050;-56
2023/03/29 14:13:14;;;;;;;18.92;15.80;;;;;;;;;;5020565;28;20356;-52
2023/03/29 14:15:49;;;;;;;20.48;16.13;;;;;;;;;;5022039;28;20105;-54
2023/03/29 14:18:16;;;;;;;;;;;;;;;;;;5022289;28;20703;-54
2023/03/29 14:20:47;;;;;;;18.75;14.75;;;;;;;;;;5020546;28;44106;-55
2023/03/29 14:23:18;;;;;;;20.90;15.85;;;;;;;;;;5022836;28;20562;-56
2023/03/29 14:25:45;;;;;;;23.45;16.00;;;;;;;;;;5012197;28;20089;-55
2023/03/29 14:28:18;;;;;;;20.67;15.48;;;;;;;;;;5016297;28;20053;-53
2023/03/29 14:30:46;;;;;;;20.77;15.40;;;;;;;;;;5019364;28;20526;-53
2023/03/29 14:33:26;;;;;;;19.45;15.77;;;;;;;;;;5019808;28;20136;-54
2023/03/29 14:35:53;;;;;;;20.67;14.80;;;;;;;;;;5022469;28;20057;-54
2023/03/29 14:38:21;;;;;;;20.02;14.90;;;;;;;;;;5021686;28;20049;-55
2023/03/29 14:40:48;;;;;;;18.98;15.57;;;;;;;;;;5022010;28;20060;-55
2023/03/29 14:43:17;;;;;;;19.77;14.85;;;;;;;;;;5018194;28;20054;-54
2023/03/29 14:45:45;;;;;;;19.65;14.43;;;;;;;;;;5021467;28;20042;-55
2023/03/29 14:48:12;;;;;;;17.67;15.13;;;;;;;;;;5020958;28;20511;-52
2023/03/29 14:50:38;;;;;;;20.40;14.50;;;;;;;;;;5013888;28;20056;-55
2023/03/29 14:53:06;;;;;;;17.73;14.05;;;;;;;;;;5021178;28;20061;-54